createdAt,value
2019-04-26T00:01:15.977Z,81.66
2019-04-26T00:03:47.541Z,81.10
2019-04-26T00:06:18.751Z,81.29
2019-04-26T00:08:53.792Z,81.85
2019-04-26T00:11:32.637Z,82.35
2019-04-26T00:14:21.078Z,81.87
2019-04-26T00:16:55.764Z,82.61
2019-04-26T00:19:26.476Z,82.52
2019-04-26T00:21:57.144Z,82.19
2019-04-26T00:24:28.559Z,82.46
2019-04-26T00:27:00.175Z,83.59
2019-04-26T00:29:30.988Z,82.51
2019-04-26T00:32:01.552Z,81.71
2019-04-26T00:34:31.972Z,82.12
2019-04-26T00:37:02.682Z,81.45
2019-04-26T00:39:32.970Z,81.28
2019-04-26T00:42:04.529Z,81.94
2019-04-26T00:44:35.203Z,81.41
2019-04-26T00:47:07.017Z,80.77
2019-04-26T00:49:44.016Z,80.44
2019-04-26T00:52:11.143Z,80.29
2019-04-26T00:54:42.852Z,80.45
2019-04-26T00:57:15.906Z,79.86
2019-04-26T00:59:47.446Z,80.27
2019-04-26T01:02:23.865Z,81.68
2019-04-26T01:04:54.599Z,81.85
2019-04-26T01:07:26.119Z,82.35
2019-04-26T01:09:56.459Z,82.23
2019-04-26T01:12:27.171Z,82.52
2019-04-26T01:14:57.591Z,82.05
2019-04-26T01:17:27.994Z,82.16
2019-04-26T01:19:59.186Z,81.55
2019-04-26T01:22:33.142Z,80.53
2019-04-26T01:25:05.534Z,80.44
2019-04-26T01:27:37.941Z,81.06
2019-04-26T01:30:11.819Z,83.01
2019-04-26T01:32:44.346Z,82.91
2019-04-26T01:35:15.334Z,83.77
2019-04-26T01:37:47.532Z,84.59
2019-04-26T01:40:21.770Z,84.85
2019-04-26T01:43:00.516Z,83.93
2019-04-26T01:45:44.996Z,83.71
2019-04-26T01:48:40.523Z,84.24
2019-04-26T01:51:14.391Z,84.60
2019-04-26T01:53:47.075Z,83.60
2019-04-26T01:56:21.824Z,83.66
2019-04-26T01:58:52.235Z,83.05
2019-04-26T02:01:54.194Z,82.11
2019-04-26T02:04:28.227Z,83.90
2019-04-26T02:06:58.555Z,83.98
2019-04-26T02:09:30.560Z,84.97
2019-04-26T02:12:02.446Z,84.40
2019-04-26T02:14:33.367Z,84.65
2019-04-26T02:17:04.905Z,84.33
2019-04-26T02:19:35.505Z,84.05
2019-04-26T02:22:22.292Z,84.01
2019-04-26T02:24:53.608Z,82.96
2019-04-26T02:27:31.053Z,83.24
2019-04-26T02:30:03.157Z,84.17
2019-04-26T02:32:35.295Z,85.06
2019-04-26T02:35:06.525Z,85.58
2019-04-26T02:37:38.329Z,86.33
2019-04-26T02:40:13.228Z,86.43
2019-04-26T02:42:45.302Z,86.31
2019-04-26T02:46:20.390Z,85.47
2019-04-26T02:49:31.247Z,85.04
2019-04-26T02:52:27.890Z,84.77
2019-04-26T02:55:08.341Z,84.91
2019-04-26T02:57:45.389Z,84.15
2019-04-26T03:00:17.755Z,85.45
2019-04-26T03:02:56.509Z,86.73
2019-04-26T03:05:31.724Z,87.86
2019-04-26T03:08:08.706Z,87.61
2019-04-26T03:10:45.614Z,87.39
2019-04-26T03:13:32.193Z,87.37
2019-04-26T03:16:15.359Z,87.94
2019-04-26T03:18:58.060Z,87.45
2019-04-26T03:21:40.602Z,86.45
2019-04-26T03:24:19.956Z,85.97
2019-04-26T03:27:04.604Z,86.28
2019-04-26T03:29:45.406Z,85.57
2019-04-26T03:32:48.302Z,85.43
2019-04-26T03:35:28.884Z,85.64
2019-04-26T03:38:20.190Z,85.05
2019-04-26T03:41:28.526Z,84.81
2019-04-26T03:44:18.382Z,85.86
2019-04-26T03:47:01.540Z,85.89
2019-04-26T03:49:45.875Z,86.18
2019-04-26T03:52:45.622Z,86.66
2019-04-26T03:56:05.057Z,86.91
2019-04-26T03:59:15.859Z,87.13
2019-04-26T04:01:59.871Z,87.68
2019-04-26T04:04:39.584Z,87.59
2019-04-26T04:07:13.470Z,87.08
2019-04-26T04:09:48.880Z,85.87
2019-04-26T04:12:45.790Z,86.46
2019-04-26T04:15:22.431Z,85.57
2019-04-26T04:17:59.411Z,84.97
2019-04-26T04:20:52.907Z,84.35
2019-04-26T04:23:49.943Z,83.89
2019-04-26T04:26:32.354Z,83.29
2019-04-26T04:29:46.510Z,81.82
2019-04-26T04:32:20.654Z,81.95
2019-04-26T04:34:54.846Z,81.56
2019-04-26T04:37:29.545Z,81.38
2019-04-26T04:40:13.306Z,80.79
2019-04-26T04:43:31.048Z,80.77
2019-04-26T04:46:51.926Z,81.34
2019-04-26T04:49:34.863Z,81.47
2019-04-26T04:52:29.116Z,80.76
2019-04-26T04:55:08.110Z,80.16
2019-04-26T04:57:52.378Z,79.29
2019-04-26T05:00:55.392Z,79.04
2019-04-26T05:03:42.357Z,78.61
2019-04-26T05:06:42.822Z,77.83
2019-04-26T05:09:23.569Z,77.62
2019-04-26T05:12:27.754Z,76.84
2019-04-26T05:15:39.282Z,76.42
2019-04-26T05:18:26.503Z,76.05
2019-04-26T05:21:40.743Z,74.98
2019-04-26T05:24:19.277Z,73.81
2019-04-26T05:27:31.368Z,73.47
2019-04-26T05:30:38.139Z,72.54
2019-04-26T05:33:33.501Z,71.76
2019-04-26T05:36:18.773Z,71.36
2019-04-26T05:39:03.334Z,67.93
2019-04-26T05:42:05.511Z,67.92
2019-04-26T05:45:12.779Z,68.39
2019-04-26T05:48:05.202Z,68.41
2019-04-26T05:51:12.784Z,66.50
2019-04-26T05:54:26.796Z,65.96
2019-04-26T05:57:20.511Z,64.83
2019-04-26T06:00:23.758Z,64.19
2019-04-26T06:03:58.393Z,63.69
2019-04-26T06:06:40.701Z,64.15
2019-04-26T06:09:38.591Z,64.30
2019-04-26T06:12:25.269Z,63.62
2019-04-26T06:15:44.436Z,64.24
2019-04-26T06:18:46.929Z,62.98
2019-04-26T06:21:27.146Z,61.90
2019-04-26T06:24:18.447Z,61.75
2019-04-26T06:27:19.148Z,61.42
2019-04-26T06:29:58.770Z,60.86
2019-04-26T06:32:56.434Z,60.05
2019-04-26T06:35:24.906Z,59.27
2019-04-26T06:39:04.402Z,58.79
2019-04-26T06:42:05.211Z,55.67
2019-04-26T06:45:30.378Z,56.18
2019-04-26T06:48:16.472Z,56.44
2019-04-26T06:50:54.185Z,56.44
2019-04-26T06:53:42.524Z,56.58
2019-04-26T06:56:51.968Z,56.05
2019-04-26T06:59:49.729Z,55.71
2019-04-26T07:02:27.587Z,54.78
2019-04-26T07:05:17.782Z,53.52
2019-04-26T07:08:09.197Z,53.03
2019-04-26T07:11:23.996Z,53.03
2019-04-26T07:14:33.096Z,51.63
2019-04-26T07:17:10.572Z,52.39
2019-04-26T07:20:26.615Z,51.99
2019-04-26T07:23:37.747Z,50.51
2019-04-26T07:26:57.931Z,48.90
2019-04-26T07:30:05.329Z,49.93
2019-04-26T07:33:04.249Z,49.40
2019-04-26T07:36:03.751Z,48.29
2019-04-26T07:39:27.243Z,47.61
2019-04-26T07:43:03.697Z,47.57
2019-04-26T07:46:12.853Z,48.10
2019-04-26T07:48:59.675Z,47.71
2019-04-26T07:52:14.243Z,47.56
2019-04-26T07:55:17.660Z,46.30
2019-04-26T07:58:31.904Z,45.81
2019-04-26T08:01:47.456Z,46.11
2019-04-26T08:04:23.632Z,45.52
2019-04-26T08:07:20.046Z,45.58
2019-04-26T08:10:00.151Z,44.64
2019-04-26T08:12:33.355Z,44.30
2019-04-26T08:15:29.043Z,45.03
2019-04-26T08:18:13.755Z,45.82
2019-04-26T08:20:56.006Z,45.90
2019-04-26T08:23:41.663Z,45.51
2019-04-26T08:26:15.519Z,44.65
2019-04-26T08:28:48.167Z,44.35
2019-04-26T08:31:24.309Z,44.50
2019-04-26T08:34:02.775Z,44.97
2019-04-26T08:36:40.293Z,44.89
2019-04-26T08:39:19.066Z,44.50
2019-04-26T08:41:51.827Z,43.00
2019-04-26T08:44:42.149Z,43.26
2019-04-26T08:47:32.167Z,42.85
2019-04-26T08:50:11.032Z,42.78
2019-04-26T08:52:43.666Z,44.04
2019-04-26T08:55:16.776Z,43.58
2019-04-26T08:57:50.797Z,43.06
2019-04-26T09:00:39.775Z,42.93
2019-04-26T09:03:23.176Z,43.54
2019-04-26T09:06:07.996Z,43.85
2019-04-26T09:08:43.494Z,43.45
2019-04-26T09:11:24.066Z,43.02
2019-04-26T09:13:50.832Z,41.86
2019-04-26T09:16:21.976Z,41.64
2019-04-26T09:18:55.077Z,42.69
2019-04-26T09:21:31.588Z,41.76
2019-04-26T09:24:21.052Z,42.08
2019-04-26T09:27:08.560Z,41.07
2019-04-26T09:30:04.798Z,39.95
2019-04-26T09:32:38.080Z,40.63
2019-04-26T09:35:11.265Z,40.37
2019-04-26T09:37:41.126Z,38.86
2019-04-26T09:40:20.986Z,38.50
2019-04-26T09:43:03.248Z,38.16
2019-04-26T09:45:52.625Z,37.40
2019-04-26T09:48:36.731Z,36.73
2019-04-26T09:51:07.781Z,36.96
2019-04-26T09:53:39.555Z,34.88
2019-04-26T09:56:10.266Z,34.61
2019-04-26T09:58:40.648Z,34.61
2019-04-26T10:01:11.093Z,33.90
2019-04-26T10:03:41.617Z,33.09
2019-04-26T10:06:12.345Z,31.28
2019-04-26T10:08:47.016Z,31.13
2019-04-26T10:11:18.557Z,30.24
2019-04-26T10:13:57.495Z,29.49
2019-04-26T10:16:49.694Z,29.21
2019-04-26T10:19:31.923Z,28.76
2019-04-26T10:22:03.313Z,26.64
2019-04-26T10:24:33.725Z,25.62
2019-04-26T10:27:04.983Z,25.38
2019-04-26T10:29:35.313Z,25.32
2019-04-26T10:32:05.892Z,23.06
2019-04-26T10:34:36.762Z,22.75
2019-04-26T10:37:07.988Z,23.58
2019-04-26T10:39:38.593Z,24.62
2019-04-26T10:42:09.309Z,24.15
2019-04-26T10:44:41.098Z,22.92
2019-04-26T10:47:11.661Z,20.90
2019-04-26T10:49:47.782Z,20.66
2019-04-26T10:52:34.151Z,20.13
2019-04-26T10:55:33.541Z,19.59
2019-04-26T10:58:36.221Z,19.67
2019-04-26T11:01:11.145Z,18.48
2019-04-26T11:03:41.922Z,20.18
2019-04-26T11:06:12.362Z,19.28
2019-04-26T11:08:42.685Z,18.57
2019-04-26T11:11:14.410Z,19.18
2019-04-26T11:13:44.930Z,18.16
2019-04-26T11:16:15.455Z,18.30
2019-04-26T11:18:45.792Z,20.48
2019-04-26T11:21:20.379Z,18.60
2019-04-26T11:23:49.993Z,17.90
2019-04-26T11:26:20.404Z,18.40
2019-04-26T11:28:55.842Z,17.57
2019-04-26T11:31:27.815Z,17.00
2019-04-26T11:34:05.083Z,17.12
2019-04-26T11:36:30.212Z,16.26
2019-04-26T11:39:01.338Z,16.39
2019-04-26T11:41:37.536Z,16.20
2019-04-26T11:44:07.017Z,16.37
2019-04-26T11:46:44.633Z,16.92
2019-04-26T11:49:09.827Z,16.07
2019-04-26T11:51:40.304Z,17.59
2019-04-26T11:54:10.806Z,17.45
2019-04-26T11:56:41.116Z,16.54
2019-04-26T11:59:11.869Z,16.67
2019-04-26T12:01:42.628Z,16.61
2019-04-26T12:04:31.891Z,16.28
2019-04-26T12:07:09.194Z,17.86
2019-04-26T12:09:42.504Z,18.10
2019-04-26T12:12:14.233Z,15.62
2019-04-26T12:14:44.939Z,15.80
2019-04-26T12:17:15.731Z,15.63
2019-04-26T12:19:48.209Z,15.33
2019-04-26T12:22:18.078Z,14.91
2019-04-26T12:24:48.819Z,14.88
2019-04-26T12:27:19.293Z,15.19
2019-04-26T12:29:49.883Z,15.97
2019-04-26T12:32:20.493Z,16.87
2019-04-26T12:34:51.042Z,16.39
2019-04-26T12:37:21.519Z,16.46
2019-04-26T12:39:52.147Z,16.41
2019-04-26T12:42:24.057Z,16.62
2019-04-26T12:45:01.968Z,17.10
2019-04-26T12:47:40.546Z,16.78
2019-04-26T12:50:11.305Z,16.21
2019-04-26T12:52:41.655Z,15.66
2019-04-26T12:55:13.894Z,15.35
2019-04-26T12:57:44.262Z,15.52
2019-04-26T13:00:16.961Z,15.15
2019-04-26T13:02:50.211Z,15.29
2019-04-26T13:05:20.611Z,15.06
2019-04-26T13:07:53.552Z,15.63
2019-04-26T13:10:46.151Z,14.37
2019-04-26T13:13:30.115Z,14.01
2019-04-26T13:16:06.709Z,14.52
2019-04-26T13:18:37.277Z,14.27
2019-04-26T13:21:07.583Z,13.95
2019-04-26T13:23:37.925Z,14.00
2019-04-26T13:26:08.347Z,13.85
2019-04-26T13:28:39.103Z,13.42
2019-04-26T13:31:09.962Z,14.18
2019-04-26T13:33:40.304Z,13.56
2019-04-26T13:36:10.781Z,13.33
2019-04-26T13:38:43.373Z,13.35
2019-04-26T13:41:13.199Z,14.04
2019-04-26T13:43:44.822Z,14.54
2019-04-26T13:46:23.718Z,14.00
2019-04-26T13:49:05.083Z,13.53
2019-04-26T13:51:35.442Z,13.04
2019-04-26T13:54:06.390Z,13.03
2019-04-26T13:56:37.610Z,12.80
2019-04-26T13:59:08.313Z,11.94
2019-04-26T14:01:38.709Z,11.95
2019-04-26T14:04:10.142Z,12.18
2019-04-26T14:06:40.968Z,12.07
2019-04-26T14:09:13.860Z,12.47
2019-04-26T14:11:44.195Z,13.22
2019-04-26T14:14:14.837Z,12.97
2019-04-26T14:16:45.218Z,13.30
2019-04-26T14:19:16.901Z,13.09
2019-04-26T14:21:47.579Z,13.18
2019-04-26T14:24:41.686Z,13.18
2019-04-26T14:27:17.776Z,13.16
2019-04-26T14:29:48.527Z,13.05
2019-04-26T14:32:23.001Z,13.45
2019-04-26T14:34:51.324Z,13.55
2019-04-26T14:37:21.864Z,13.15
2019-04-26T14:39:55.361Z,12.84
2019-04-26T14:42:33.732Z,12.52
2019-04-26T14:44:56.460Z,12.82
2019-04-26T14:47:30.392Z,12.69
2019-04-26T14:49:59.390Z,12.51
2019-04-26T14:52:29.732Z,12.32
2019-04-26T14:55:00.203Z,12.17
2019-04-26T14:57:31.676Z,12.14
2019-04-26T15:00:02.704Z,12.10
2019-04-26T15:03:03.260Z,12.31
2019-04-26T15:05:43.166Z,12.13
2019-04-26T15:08:13.809Z,11.66
2019-04-26T15:10:48.569Z,11.98
2019-04-26T15:13:20.661Z,12.13
2019-04-26T15:15:48.297Z,12.65
2019-04-26T15:18:18.692Z,12.41
2019-04-26T15:20:49.047Z,12.65
2019-04-26T15:23:23.937Z,12.53
2019-04-26T15:25:52.818Z,12.86
2019-04-26T15:28:23.354Z,12.82
2019-04-26T15:30:53.990Z,12.77
2019-04-26T15:33:24.565Z,13.13
2019-04-26T15:35:54.915Z,13.29
2019-04-26T15:38:25.609Z,13.32
2019-04-26T15:41:17.761Z,13.15
2019-04-26T15:44:13.600Z,13.12
2019-04-26T15:47:13.635Z,13.53
2019-04-26T15:50:09.851Z,14.26
2019-04-26T15:52:38.629Z,14.01
2019-04-26T15:55:09.561Z,15.45
2019-04-26T15:57:39.859Z,17.22
2019-04-26T16:00:12.534Z,18.85
2019-04-26T16:02:43.364Z,19.58
2019-04-26T16:05:16.536Z,20.66
2019-04-26T16:07:45.891Z,21.41
2019-04-26T16:10:16.556Z,23.11
2019-04-26T16:12:47.322Z,22.73
2019-04-26T16:15:17.759Z,23.30
2019-04-26T16:17:48.161Z,24.46
2019-04-26T16:20:18.681Z,24.07
2019-04-26T16:22:49.383Z,24.98
2019-04-26T16:25:19.687Z,25.78
2019-04-26T16:27:52.320Z,25.78
2019-04-26T16:30:39.941Z,25.24
2019-04-26T16:33:33.466Z,25.69
2019-04-26T16:36:02.680Z,25.80
2019-04-26T16:38:36.948Z,25.93
2019-04-26T16:41:07.913Z,26.12
2019-04-26T16:43:44.637Z,27.24
2019-04-26T16:46:14.746Z,27.50
2019-04-26T16:48:44.475Z,27.85
2019-04-26T16:51:14.611Z,28.77
2019-04-26T16:54:02.804Z,29.66
2019-04-26T16:56:25.851Z,29.84
2019-04-26T16:58:53.603Z,30.83
2019-04-26T17:01:23.583Z,30.80
2019-04-26T17:03:54.419Z,31.14
2019-04-26T17:06:24.715Z,31.29
2019-04-26T17:09:01.161Z,31.43
2019-04-26T17:11:30.227Z,31.83
2019-04-26T17:14:04.806Z,31.92
2019-04-26T17:16:34.693Z,31.65
2019-04-26T17:19:04.704Z,31.24
2019-04-26T17:21:41.146Z,31.28
2019-04-26T17:24:26.088Z,31.43
2019-04-26T17:27:05.396Z,31.77
2019-04-26T17:29:33.856Z,31.84
2019-04-26T17:32:09.077Z,31.99
2019-04-26T17:34:40.327Z,31.92
2019-04-26T17:37:12.738Z,31.29
2019-04-26T17:39:41.918Z,33.05
2019-04-26T17:42:12.270Z,34.42
2019-04-26T17:44:42.543Z,34.78
2019-04-26T17:47:12.925Z,35.00
2019-04-26T17:49:44.001Z,35.35
2019-04-26T17:52:15.083Z,35.28
2019-04-26T17:54:48.983Z,35.38
2019-04-26T17:57:31.300Z,35.75
2019-04-26T17:59:51.522Z,36.59
2019-04-26T18:02:40.224Z,36.66
2019-04-26T18:05:00.407Z,36.71
2019-04-26T18:07:40.263Z,37.26
2019-04-26T18:10:02.373Z,37.69
2019-04-26T18:12:32.617Z,37.70
2019-04-26T18:15:06.151Z,37.89
2019-04-26T18:18:09.663Z,37.87
2019-04-26T18:20:58.513Z,38.02
2019-04-26T18:23:30.403Z,38.01
2019-04-26T18:26:00.970Z,38.14
2019-04-26T18:28:31.721Z,38.20
2019-04-26T18:31:03.624Z,38.05
2019-04-26T18:33:34.585Z,37.56
2019-04-26T18:36:05.317Z,37.41
2019-04-26T18:38:35.915Z,37.38
2019-04-26T18:41:06.455Z,37.55
2019-04-26T18:43:37.111Z,37.81
2019-04-26T18:46:13.961Z,37.30
2019-04-26T18:48:44.353Z,37.51
2019-04-26T18:51:14.694Z,37.28
2019-04-26T18:54:14.579Z,37.14
2019-04-26T18:56:49.932Z,40.44
2019-04-26T18:59:23.333Z,43.76
2019-04-26T19:01:54.756Z,45.88
2019-04-26T19:04:25.266Z,47.45
2019-04-26T19:06:55.985Z,48.68
2019-04-26T19:09:28.096Z,47.75
2019-04-26T19:11:58.603Z,48.75
2019-04-26T19:14:49.877Z,48.01
2019-04-26T19:17:30.109Z,47.47
2019-04-26T19:20:22.808Z,47.45
2019-04-26T19:22:58.203Z,47.90
2019-04-26T19:25:29.830Z,50.84
2019-04-26T19:28:05.842Z,52.15
2019-04-26T19:30:33.449Z,51.05
2019-04-26T19:33:03.836Z,49.90
2019-04-26T19:35:39.382Z,49.73
2019-04-26T19:38:13.391Z,50.98
2019-04-26T19:40:46.412Z,52.47
2019-04-26T19:43:13.108Z,52.34
2019-04-26T19:46:09.549Z,53.31
2019-04-26T19:49:00.015Z,53.51
2019-04-26T19:51:49.154Z,52.20
2019-04-26T19:54:37.995Z,53.29
2019-04-26T19:57:09.311Z,53.08
2019-04-26T19:59:39.930Z,52.13
2019-04-26T20:02:10.240Z,52.13
2019-04-26T20:04:41.926Z,54.16
2019-04-26T20:07:12.423Z,54.16
2019-04-26T20:09:43.820Z,54.72
2019-04-26T20:12:14.243Z,54.72
2019-04-26T20:14:50.707Z,54.75
2019-04-26T20:17:19.746Z,54.14
2019-04-26T20:19:53.914Z,53.88
2019-04-26T20:22:28.240Z,53.99
2019-04-26T20:24:57.464Z,54.76
2019-04-26T20:27:27.984Z,54.76
2019-04-26T20:29:58.779Z,54.88
2019-04-26T20:32:37.365Z,54.28
2019-04-26T20:35:20.013Z,53.96
2019-04-26T20:37:52.070Z,54.33
2019-04-26T20:40:25.520Z,55.44
2019-04-26T20:43:01.973Z,56.00
2019-04-26T20:45:38.915Z,55.28
2019-04-26T20:47:59.216Z,54.76
2019-04-26T20:50:33.456Z,54.92
2019-04-26T20:53:02.340Z,55.95
2019-04-26T20:55:34.629Z,57.31
2019-04-26T20:58:08.500Z,58.11
2019-04-26T21:00:37.812Z,58.36
2019-04-26T21:03:21.029Z,59.12
2019-04-26T21:05:46.063Z,58.90
2019-04-26T21:08:14.004Z,59.33
2019-04-26T21:10:44.351Z,59.32
2019-04-26T21:13:14.950Z,59.54
2019-04-26T21:15:56.082Z,61.20
2019-04-26T21:18:17.341Z,60.84
2019-04-26T21:20:48.190Z,59.92
2019-04-26T21:23:18.871Z,58.96
2019-04-26T21:26:17.311Z,59.19
2019-04-26T21:28:54.282Z,60.17
2019-04-26T21:31:45.472Z,59.54
2019-04-26T21:34:25.675Z,59.12
2019-04-26T21:37:11.434Z,58.42
2019-04-26T21:39:54.165Z,59.33
2019-04-26T21:42:25.850Z,59.04
2019-04-26T21:44:56.395Z,59.62
2019-04-26T21:47:27.550Z,59.32
2019-04-26T21:50:00.766Z,59.88
2019-04-26T21:52:34.203Z,61.42
2019-04-26T21:55:06.518Z,61.84
2019-04-26T21:57:37.154Z,61.45
2019-04-26T22:00:18.069Z,61.21
2019-04-26T22:02:50.156Z,62.91
2019-04-26T22:05:20.443Z,62.37
2019-04-26T22:07:51.089Z,61.88
2019-04-26T22:10:28.127Z,62.79
2019-04-26T22:13:01.490Z,62.35
2019-04-26T22:15:54.509Z,63.54
2019-04-26T22:18:30.018Z,64.98
2019-04-26T22:21:07.023Z,65.38
2019-04-26T22:23:47.621Z,64.45
2019-04-26T22:26:19.274Z,63.68
2019-04-26T22:28:49.791Z,65.56
2019-04-26T22:31:20.356Z,65.98
2019-04-26T22:33:50.685Z,66.03
2019-04-26T22:36:23.247Z,65.89
2019-04-26T22:38:55.646Z,66.36
2019-04-26T22:41:28.510Z,67.37
2019-04-26T22:44:05.056Z,68.09
2019-04-26T22:47:03.599Z,68.65
2019-04-26T22:49:34.989Z,68.47
2019-04-26T22:52:06.445Z,68.73
2019-04-26T22:54:37.643Z,68.64
2019-04-26T22:57:13.152Z,68.93
2019-04-26T22:59:43.272Z,68.86
2019-04-26T23:02:18.430Z,69.34
2019-04-26T23:04:49.033Z,69.56
2019-04-26T23:07:23.226Z,69.05
2019-04-26T23:09:55.126Z,69.39
2019-04-26T23:12:44.020Z,69.48
2019-04-26T23:15:39.761Z,68.64
2019-04-26T23:18:27.864Z,69.00
2019-04-26T23:21:07.738Z,68.69
2019-04-26T23:23:40.982Z,69.10
2019-04-26T23:26:10.033Z,69.44
2019-04-26T23:28:40.676Z,69.85
2019-04-26T23:31:11.101Z,69.58
2019-04-26T23:33:42.924Z,69.25
2019-04-26T23:36:13.846Z,69.35
2019-04-26T23:38:45.844Z,69.59
2019-04-26T23:41:16.187Z,70.83
2019-04-26T23:43:46.683Z,71.01
2019-04-26T23:46:18.877Z,71.21
2019-04-26T23:48:50.105Z,71.37
2019-04-26T23:51:20.782Z,71.22
2019-04-26T23:53:56.341Z,71.32
2019-04-26T23:56:25.282Z,71.97
2019-04-26T23:58:55.680Z,72.01
